Time;durP1;ratioP1;P1;durP2;ratioP2;P2;SDS_P1;SDS_P2;PMS_P1;PMS_P2;Temp;Humidity;BMP_temperature;BMP_pressure;BME280_temperature;BME280_humidity;BME280_pressure;Samples;Min_cycle;Max_cycle;Signal;HPM_P1;HPM_P2
2023/05/02 00:01:17;;;;;;;43.17;24.08;;;;;;;;;;5035639;27;96870;-68
2023/05/02 00:03:44;;;;;;;44.50;24.73;;;;;;;;;;5022875;27;93032;-68
2023/05/02 00:06:10;;;;;;;41.55;23.65;;;;;;;;;;5028087;28;93507;-69
2023/05/02 00:08:37;;;;;;;41.80;22.83;;;;;;;;;;5012657;28;93430;-69
2023/05/02 00:11:04;;;;;;;47.03;23.48;;;;;;;;;;5033883;28;92474;-67
2023/05/02 00:13:30;;;;;;;36.15;22.05;;;;;;;;;;5024061;28;93913;-68
2023/05/02 00:15:56;;;;;;;40.95;22.95;;;;;;;;;;5030203;28;92389;-67
2023/05/02 00:18:23;;;;;;;41.58;21.88;;;;;;;;;;5033461;28;93082;-67
2023/05/02 00:20:49;;;;;;;41.35;22.20;;;;;;;;;;5032713;28;93477;-67
2023/05/02 00:23:16;;;;;;;42.13;22.55;;;;;;;;;;5033167;28;92635;-67
2023/05/02 00:25:45;;;;;;;41.55;21.20;;;;;;;;;;5031869;28;95010;-67
2023/05/02 00:28:12;;;;;;;41.20;22.15;;;;;;;;;;5032899;28;93411;-68
2023/05/02 00:30:42;;;;;;;39.85;21.08;;;;;;;;;;5032788;28;92632;-67
2023/05/02 00:33:11;;;;;;;34.90;20.25;;;;;;;;;;5036250;28;94642;-68
2023/05/02 00:35:37;;;;;;;40.05;19.10;;;;;;;;;;5033046;27;92764;-67
2023/05/02 00:38:04;;;;;;;37.97;19.52;;;;;;;;;;5031032;27;93153;-67
2023/05/02 00:40:31;;;;;;;36.35;19.00;;;;;;;;;;5032782;28;93868;-67
2023/05/02 00:42:57;;;;;;;35.10;20.05;;;;;;;;;;5038591;27;91641;-68
2023/05/02 00:45:23;;;;;;;34.17;18.75;;;;;;;;;;5040908;27;92947;-68
2023/05/02 00:47:50;;;;;;;31.52;18.30;;;;;;;;;;5037033;27;93674;-68
2023/05/02 00:50:16;;;;;;;29.05;16.50;;;;;;;;;;5038366;27;94921;-68
2023/05/02 00:52:43;;;;;;;32.00;16.40;;;;;;;;;;5051892;27;95620;-68
2023/05/02 00:55:09;;;;;;;29.10;15.10;;;;;;;;;;5051749;27;92697;-68
2023/05/02 00:57:35;;;;;;;24.10;14.63;;;;;;;;;;5030002;27;94343;-66
2023/05/02 01:00:03;;;;;;;23.55;12.45;;;;;;;;;;5010533;28;93261;-67
2023/05/02 01:02:50;;;;;;;24.95;11.10;;;;;;;;;;5026192;27;92496;-67
2023/05/02 01:05:19;;;;;;;22.05;11.15;;;;;;;;;;5027884;27;93728;-67
2023/05/02 01:07:52;;;;;;;24.43;10.87;;;;;;;;;;5013982;28;92537;-67
2023/05/02 01:10:22;;;;;;;20.25;9.60;;;;;;;;;;5015385;28;92562;-67
2023/05/02 01:12:54;;;;;;;17.92;9.05;;;;;;;;;;5014185;28;93149;-67
2023/05/02 01:15:21;;;;;;;17.35;8.65;;;;;;;;;;5014560;28;98192;-67
2023/05/02 01:17:48;;;;;;;22.55;9.40;;;;;;;;;;5013990;28;96698;-67
2023/05/02 01:20:19;;;;;;;14.77;7.47;;;;;;;;;;5016079;28;93723;-67
2023/05/02 01:22:46;;;;;;;15.15;7.00;;;;;;;;;;5023448;28;92455;-67
2023/05/02 01:25:16;;;;;;;16.70;6.90;;;;;;;;;;5030678;28;94180;-68
2023/05/02 01:27:49;;;;;;;11.45;6.38;;;;;;;;;;5016845;28;94464;-66
2023/05/02 01:30:17;;;;;;;13.35;5.15;;;;;;;;;;5016555;28;92627;-66
2023/05/02 01:32:44;;;;;;;15.85;4.32;;;;;;;;;;5016958;28;96580;-66
2023/05/02 01:35:13;;;;;;;10.25;3.65;;;;;;;;;;5016245;28;93608;-66
2023/05/02 01:37:40;;;;;;;8.45;2.75;;;;;;;;;;5019219;28;92479;-68
2023/05/02 01:40:07;;;;;;;7.43;2.70;;;;;;;;;;5029832;28;95806;-66
2023/05/02 01:42:35;;;;;;;14.27;3.00;;;;;;;;;;5035616;27;92660;-66
2023/05/02 01:45:02;;;;;;;6.72;2.53;;;;;;;;;;5038784;27;93079;-68
2023/05/02 01:47:31;;;;;;;16.10;2.90;;;;;;;;;;5046184;27;93726;-66
2023/05/02 01:49:58;;;;;;;7.95;2.15;;;;;;;;;;5042811;27;92578;-66
2023/05/02 01:52:26;;;;;;;8.35;2.63;;;;;;;;;;5037770;27;93142;-66
2023/05/02 01:54:52;;;;;;;9.00;1.98;;;;;;;;;;5054248;27;92759;-66
2023/05/02 01:57:19;;;;;;;12.00;2.40;;;;;;;;;;5036697;27;91762;-66
2023/05/02 01:59:46;;;;;;;9.45;2.33;;;;;;;;;;5052003;27;93460;-67
2023/05/02 02:02:13;;;;;;;9.82;2.83;;;;;;;;;;5049650;27;92490;-67
2023/05/02 02:04:39;;;;;;;18.40;4.00;;;;;;;;;;5033246;27;95137;-68
2023/05/02 02:07:07;;;;;;;19.73;3.25;;;;;;;;;;5038294;27;93924;-66
2023/05/02 02:09:33;;;;;;;14.57;2.80;;;;;;;;;;5039414;27;92899;-68
2023/05/02 02:12:10;;;;;;;16.83;2.95;;;;;;;;;;5036137;28;94177;-69
2023/05/02 02:14:38;;;;;;;22.73;4.03;;;;;;;;;;5035384;27;93396;-67
2023/05/02 02:17:08;;;;;;;27.42;3.70;;;;;;;;;;5035897;28;92525;-66
2023/05/02 02:19:36;;;;;;;12.65;3.00;;;;;;;;;;5035557;28;92473;-68
2023/05/02 02:22:03;;;;;;;12.40;2.60;;;;;;;;;;5038875;28;93348;-68
2023/05/02 02:24:31;;;;;;;10.68;2.83;;;;;;;;;;5035722;28;92873;-68
2023/05/02 02:26:58;;;;;;;22.25;3.60;;;;;;;;;;5035867;28;94445;-68
2023/05/02 02:29:24;;;;;;;19.67;3.30;;;;;;;;;;5033613;27;94868;-66
2023/05/02 02:31:50;;;;;;;14.32;3.10;;;;;;;;;;5035402;28;96646;-66
2023/05/02 02:34:17;;;;;;;15.38;2.63;;;;;;;;;;5035420;28;93485;-66
2023/05/02 02:36:45;;;;;;;10.25;2.67;;;;;;;;;;5035352;28;92464;-66
2023/05/02 02:39:17;;;;;;;9.35;2.10;;;;;;;;;;5035969;28;94652;-66
2023/05/02 02:42:01;;;;;;;11.85;2.20;;;;;;;;;;5034987;28;93520;-67
2023/05/02 02:44:33;;;;;;;12.98;2.55;;;;;;;;;;5038355;28;92468;-66
2023/05/02 02:47:04;;;;;;;5.72;1.90;;;;;;;;;;5037649;27;92475;-67
2023/05/02 02:49:37;;;;;;;8.30;2.05;;;;;;;;;;5025470;28;92567;-68
2023/05/02 02:52:03;;;;;;;12.18;2.08;;;;;;;;;;5048495;27;94153;-66
2023/05/02 02:54:39;;;;;;;11.05;1.70;;;;;;;;;;5031941;27;96953;-66
2023/05/02 02:57:14;;;;;;;8.20;1.80;;;;;;;;;;5027062;27;94085;-66
2023/05/02 02:59:44;;;;;;;7.65;1.63;;;;;;;;;;5025285;27;94087;-66
2023/05/02 03:02:11;;;;;;;11.10;1.83;;;;;;;;;;5037845;27;94027;-66
2023/05/02 03:04:40;;;;;;;10.10;1.90;;;;;;;;;;5038449;27;92801;-66
2023/05/02 03:07:07;;;;;;;9.60;1.77;;;;;;;;;;5044951;27;94547;-66
2023/05/02 03:09:40;;;;;;;11.35;1.85;;;;;;;;;;5053807;27;92538;-66
2023/05/02 03:12:06;;;;;;;13.10;2.17;;;;;;;;;;5052952;27;93309;-69
2023/05/02 03:14:32;;;;;;;11.80;2.30;;;;;;;;;;5032058;28;93575;-66
2023/05/02 03:16:58;;;;;;;10.05;1.70;;;;;;;;;;5033583;28;92582;-66
2023/05/02 03:19:25;;;;;;;11.25;2.13;;;;;;;;;;5049927;27;96429;-67
2023/05/02 03:21:51;;;;;;;8.27;1.85;;;;;;;;;;5046839;27;94616;-66
2023/05/02 03:24:18;;;;;;;12.07;1.80;;;;;;;;;;5031976;28;92462;-66
2023/05/02 03:26:46;;;;;;;5.10;1.48;;;;;;;;;;5022196;28;94106;-68
2023/05/02 03:29:13;;;;;;;7.15;1.77;;;;;;;;;;5033533;28;92492;-66
2023/05/02 03:31:39;;;;;;;7.30;1.63;;;;;;;;;;5034271;27;94138;-69
2023/05/02 03:34:05;;;;;;;10.60;1.80;;;;;;;;;;5048232;27;93534;-68
2023/05/02 03:36:32;;;;;;;7.82;1.35;;;;;;;;;;5045241;27;91811;-67
2023/05/02 03:38:58;;;;;;;12.77;3.25;;;;;;;;;;5043798;27;92486;-66
2023/05/02 03:41:24;;;;;;;6.10;1.63;;;;;;;;;;5051892;27;93369;-66
2023/05/02 03:43:51;;;;;;;7.28;1.77;;;;;;;;;;5049173;27;96592;-66
2023/05/02 03:46:17;;;;;;;13.05;2.13;;;;;;;;;;5049799;27;95552;-66
2023/05/02 03:48:45;;;;;;;11.95;1.67;;;;;;;;;;5047884;27;94076;-67
2023/05/02 03:51:12;;;;;;;12.57;2.13;;;;;;;;;;5051359;27;94268;-67
2023/05/02 03:53:38;;;;;;;11.73;2.08;;;;;;;;;;5051865;27;93500;-67
2023/05/02 03:56:06;;;;;;;10.90;1.95;;;;;;;;;;5046731;27;92964;-67
2023/05/02 03:58:35;;;;;;;11.00;1.92;;;;;;;;;;5046866;27;93186;-67
2023/05/02 04:01:01;;;;;;;12.30;2.22;;;;;;;;;;5027716;28;94063;-67
2023/05/02 04:03:27;;;;;;;8.32;1.80;;;;;;;;;;5022639;27;94130;-67
2023/05/02 04:05:55;;;;;;;6.72;2.22;;;;;;;;;;5033639;28;94259;-67
2023/05/02 04:08:21;;;;;;;9.43;2.25;;;;;;;;;;5014899;28;96128;-69
2023/05/02 04:10:50;;;;;;;9.75;2.22;;;;;;;;;;5021010;28;92430;-67
2023/05/02 04:13:16;;;;;;;12.55;2.63;;;;;;;;;;5033872;28;94431;-67
2023/05/02 04:15:44;;;;;;;8.75;1.83;;;;;;;;;;5034037;27;92745;-67
2023/05/02 04:18:10;;;;;;;17.27;2.78;;;;;;;;;;5015859;27;93203;-67
2023/05/02 04:20:36;;;;;;;8.45;1.75;;;;;;;;;;5014312;28;94539;-67
2023/05/02 04:23:02;;;;;;;12.95;2.35;;;;;;;;;;5017943;28;92490;-67
2023/05/02 04:25:29;;;;;;;13.77;2.10;;;;;;;;;;5034221;28;93330;-67
2023/05/02 04:27:55;;;;;;;17.50;2.22;;;;;;;;;;5034096;28;95107;-67
2023/05/02 04:30:23;;;;;;;10.70;2.65;;;;;;;;;;5033219;28;92601;-67
2023/05/02 04:32:49;;;;;;;15.32;2.97;;;;;;;;;;5035408;27;95055;-67
2023/05/02 04:35:16;;;;;;;17.50;2.47;;;;;;;;;;5034092;27;92796;-67
2023/05/02 04:37:42;;;;;;;10.00;1.63;;;;;;;;;;5034077;27;94205;-67
2023/05/02 04:40:10;;;;;;;10.25;2.60;;;;;;;;;;5035523;27;94514;-67
2023/05/02 04:42:36;;;;;;;12.52;2.53;;;;;;;;;;5052418;27;92581;-68
2023/05/02 04:45:03;;;;;;;16.48;2.92;;;;;;;;;;5052007;27;94376;-68
2023/05/02 04:47:29;;;;;;;14.18;2.03;;;;;;;;;;5042771;27;94387;-68
2023/05/02 04:49:56;;;;;;;11.07;2.00;;;;;;;;;;5041946;27;91836;-66
2023/05/02 04:52:23;;;;;;;11.63;2.10;;;;;;;;;;5045771;27;92586;-66
2023/05/02 04:54:49;;;;;;;12.82;2.88;;;;;;;;;;5039445;28;93434;-66
2023/05/02 04:57:16;;;;;;;7.95;2.25;;;;;;;;;;5036396;27;94889;-66
2023/05/02 04:59:42;;;;;;;13.52;2.70;;;;;;;;;;5037800;27;94495;-66
2023/05/02 05:02:11;;;;;;;19.73;2.95;;;;;;;;;;5036150;28;92440;-66
2023/05/02 05:04:38;;;;;;;14.40;2.45;;;;;;;;;;5044622;27;94602;-66
2023/05/02 05:07:04;;;;;;;16.30;3.08;;;;;;;;;;5036192;28;94462;-66
2023/05/02 05:09:30;;;;;;;16.48;2.97;;;;;;;;;;5052071;27;92523;-66
2023/05/02 05:11:57;;;;;;;11.63;3.05;;;;;;;;;;5036994;27;92913;-66
2023/05/02 05:14:23;;;;;;;12.73;3.03;;;;;;;;;;5036708;28;93700;-66
2023/05/02 05:16:49;;;;;;;15.65;3.00;;;;;;;;;;5036940;27;93450;-66
2023/05/02 05:19:16;;;;;;;18.38;3.08;;;;;;;;;;5054976;27;93472;-66
2023/05/02 05:21:42;;;;;;;18.27;3.25;;;;;;;;;;5048918;27;94854;-67
2023/05/02 05:24:08;;;;;;;14.93;2.78;;;;;;;;;;5050329;27;94228;-66
2023/05/02 05:26:35;;;;;;;17.65;3.28;;;;;;;;;;5054508;27;93773;-66
2023/05/02 05:29:01;;;;;;;16.75;3.25;;;;;;;;;;5053333;27;92496;-66
2023/05/02 05:31:27;;;;;;;22.67;2.90;;;;;;;;;;5057398;27;94252;-66
2023/05/02 05:33:54;;;;;;;13.00;3.08;;;;;;;;;;5048644;27;93497;-67
2023/05/02 05:36:20;;;;;;;17.85;2.95;;;;;;;;;;5038024;28;92489;-66
2023/05/02 05:38:49;;;;;;;17.55;3.50;;;;;;;;;;5050625;27;93834;-66
2023/05/02 05:41:16;;;;;;;15.57;3.10;;;;;;;;;;5037086;27;92469;-66
2023/05/02 05:43:42;;;;;;;20.20;3.40;;;;;;;;;;5041174;27;92423;-66
2023/05/02 05:46:08;;;;;;;22.75;3.30;;;;;;;;;;5034257;28;96755;-66
2023/05/02 05:48:35;;;;;;;16.33;3.22;;;;;;;;;;5035390;28;93924;-67
2023/05/02 05:51:04;;;;;;;16.80;3.65;;;;;;;;;;5036605;28;94553;-66
2023/05/02 05:53:31;;;;;;;20.83;2.80;;;;;;;;;;5035439;28;94293;-66
2023/05/02 05:55:57;;;;;;;16.10;3.30;;;;;;;;;;5035488;27;92527;-66
2023/05/02 05:58:24;;;;;;;13.82;2.88;;;;;;;;;;5038282;28;94253;-66
2023/05/02 06:00:51;;;;;;;20.95;5.22;;;;;;;;;;5035627;28;92391;-67
2023/05/02 06:03:17;;;;;;;21.50;3.65;;;;;;;;;;5039070;27;92169;-66
2023/05/02 06:05:44;;;;;;;22.42;3.33;;;;;;;;;;5047378;27;92459;-67
2023/05/02 06:08:10;;;;;;;9.88;2.38;;;;;;;;;;5025700;28;92689;-68
2023/05/02 06:10:36;;;;;;;16.60;3.22;;;;;;;;;;5014733;28;94754;-67
2023/05/02 06:13:03;;;;;;;18.45;3.83;;;;;;;;;;5026417;28;94442;-67
2023/05/02 06:15:31;;;;;;;15.77;3.80;;;;;;;;;;5035578;28;92455;-67
2023/05/02 06:17:58;;;;;;;16.98;3.70;;;;;;;;;;5036005;28;92953;-67
2023/05/02 06:20:25;;;;;;;14.98;3.45;;;;;;;;;;5038891;28;94446;-67
2023/05/02 06:22:51;;;;;;;18.02;3.97;;;;;;;;;;5036103;28;94294;-67
2023/05/02 06:25:17;;;;;;;21.05;4.15;;;;;;;;;;5035256;28;93450;-66
2023/05/02 06:27:43;;;;;;;26.55;4.68;;;;;;;;;;5036526;28;91695;-66
2023/05/02 06:30:10;;;;;;;25.60;3.78;;;;;;;;;;5035427;27;93257;-66
2023/05/02 06:32:36;;;;;;;20.23;3.33;;;;;;;;;;5035871;28;92445;-67
2023/05/02 06:35:03;;;;;;;16.52;4.00;;;;;;;;;;5033691;27;94837;-66
2023/05/02 06:37:33;;;;;;;13.25;3.35;;;;;;;;;;5035512;27;95528;-65
2023/05/02 06:40:00;;;;;;;12.43;3.25;;;;;;;;;;5014972;28;93721;-66
2023/05/02 06:42:27;;;;;;;15.30;3.42;;;;;;;;;;5036745;27;92764;-66
2023/05/02 06:44:53;;;;;;;13.40;3.28;;;;;;;;;;5043576;27;93378;-66
2023/05/02 06:47:20;;;;;;;14.30;3.10;;;;;;;;;;5027243;27;92549;-67
2023/05/02 06:49:47;;;;;;;14.25;3.05;;;;;;;;;;5036097;27;93767;-66
2023/05/02 06:52:13;;;;;;;20.60;2.63;;;;;;;;;;5043491;27;93009;-66
2023/05/02 06:54:41;;;;;;;13.55;2.53;;;;;;;;;;5034399;27;92588;-66
2023/05/02 06:57:07;;;;;;;12.73;2.67;;;;;;;;;;5040073;27;93147;-66
2023/05/02 06:59:33;;;;;;;14.05;2.83;;;;;;;;;;5023224;28;96114;-66
2023/05/02 07:02:00;;;;;;;17.05;2.20;;;;;;;;;;5016718;28;92829;-66
2023/05/02 07:04:30;;;;;;;8.52;2.33;;;;;;;;;;5043998;27;93724;-67
2023/05/02 07:06:56;;;;;;;12.90;2.50;;;;;;;;;;5036318;27;92482;-66
2023/05/02 07:09:23;;;;;;;10.07;2.60;;;;;;;;;;5035742;27;93257;-67
2023/05/02 07:11:49;;;;;;;17.70;2.88;;;;;;;;;;5034093;27;93546;-66
2023/05/02 07:14:15;;;;;;;12.30;2.60;;;;;;;;;;5032538;27;92512;-66
2023/05/02 07:16:41;;;;;;;15.95;2.70;;;;;;;;;;5037520;27;92367;-66
2023/05/02 07:19:08;;;;;;;11.82;2.88;;;;;;;;;;5033526;27;93480;-66
2023/05/02 07:21:34;;;;;;;12.02;3.15;;;;;;;;;;5034182;27;92521;-66
2023/05/02 07:24:00;;;;;;;16.70;2.70;;;;;;;;;;5036775;27;94972;-66
2023/05/02 07:26:27;;;;;;;16.77;2.33;;;;;;;;;;5033267;27;92825;-66
2023/05/02 07:28:53;;;;;;;23.52;3.40;;;;;;;;;;5021001;27;93592;-67
2023/05/02 07:31:19;;;;;;;19.95;3.10;;;;;;;;;;5012851;28;93092;-66
2023/05/02 07:33:46;;;;;;;26.30;3.22;;;;;;;;;;5033618;27;92763;-66
2023/05/02 07:36:12;;;;;;;10.00;2.28;;;;;;;;;;5026727;27;94288;-66
2023/05/02 07:38:38;;;;;;;10.90;2.63;;;;;;;;;;5031983;27;93822;-66
2023/05/02 07:41:04;;;;;;;15.70;3.00;;;;;;;;;;5055108;27;91897;-66
2023/05/02 07:43:31;;;;;;;10.38;2.45;;;;;;;;;;5039946;27;92568;-66
2023/05/02 07:45:57;;;;;;;22.55;2.63;;;;;;;;;;5031276;27;93110;-66
2023/05/02 07:48:23;;;;;;;18.85;2.70;;;;;;;;;;5029358;27;95091;-66
2023/05/02 07:50:53;;;;;;;13.95;2.78;;;;;;;;;;5033670;27;93893;-66
2023/05/02 07:53:19;;;;;;;14.63;2.58;;;;;;;;;;5033526;27;93278;-66
2023/05/02 07:55:45;;;;;;;15.68;3.15;;;;;;;;;;5034030;28;93170;-66
2023/05/02 07:58:12;;;;;;;11.68;3.10;;;;;;;;;;5034118;27;95148;-67
2023/05/02 08:00:38;;;;;;;13.52;3.58;;;;;;;;;;5035492;27;92484;-66
2023/05/02 08:03:05;;;;;;;6.40;2.08;;;;;;;;;;5035913;27;94872;-66
2023/05/02 08:05:32;;;;;;;11.30;2.70;;;;;;;;;;5060892;27;93341;-66
2023/05/02 08:08:00;;;;;;;12.77;2.63;;;;;;;;;;5046408;27;94012;-66
2023/05/02 08:10:27;;;;;;;9.20;2.33;;;;;;;;;;5054469;27;94611;-66
2023/05/02 08:12:53;;;;;;;9.82;2.72;;;;;;;;;;5048726;27;94784;-66
2023/05/02 08:15:20;;;;;;;9.52;2.28;;;;;;;;;;5034165;28;97080;-67
2023/05/02 08:17:46;;;;;;;28.48;3.05;;;;;;;;;;5034885;27;93254;-66
2023/05/02 08:20:13;;;;;;;14.68;2.65;;;;;;;;;;5035589;27;92490;-66
2023/05/02 08:22:39;;;;;;;18.70;3.13;;;;;;;;;;5054336;27;93248;-66
2023/05/02 08:25:06;;;;;;;9.90;2.58;;;;;;;;;;5053829;27;93501;-66
2023/05/02 08:27:34;;;;;;;12.52;2.85;;;;;;;;;;5053674;27;92458;-66
2023/05/02 08:30:00;;;;;;;14.30;2.38;;;;;;;;;;5056573;27;93194;-67
2023/05/02 08:32:28;;;;;;;15.95;2.88;;;;;;;;;;5044138;27;92655;-66
2023/05/02 08:34:58;;;;;;;13.52;2.63;;;;;;;;;;5033778;27;92925;-67
2023/05/02 08:37:24;;;;;;;9.35;2.47;;;;;;;;;;5046426;27;96594;-67
2023/05/02 08:39:51;;;;;;;9.82;2.38;;;;;;;;;;5056227;27;92498;-67
2023/05/02 08:42:19;;;;;;;11.00;2.53;;;;;;;;;;5060475;27;94227;-67
2023/05/02 08:44:47;;;;;;;7.32;2.15;;;;;;;;;;5064413;27;94603;-66
2023/05/02 08:47:14;;;;;;;11.82;1.90;;;;;;;;;;5050270;27;93041;-66
2023/05/02 08:49:41;;;;;;;9.07;2.13;;;;;;;;;;5050478;27;94182;-66
2023/05/02 08:52:07;;;;;;;5.53;1.95;;;;;;;;;;5057502;27;93442;-67
2023/05/02 08:54:36;;;;;;;11.65;1.50;;;;;;;;;;5056568;27;94073;-66
2023/05/02 08:57:03;;;;;;;11.00;1.85;;;;;;;;;;5057644;27;93794;-67
2023/05/02 08:59:29;;;;;;;5.18;1.27;;;;;;;;;;5053696;27;92542;-66
2023/05/02 09:01:59;;;;;;;9.60;1.88;;;;;;;;;;5052602;27;94844;-67
2023/05/02 09:04:29;;;;;;;4.93;1.57;;;;;;;;;;5055765;27;93367;-67
2023/05/02 09:06:56;;;;;;;7.97;1.60;;;;;;;;;;5042977;27;92496;-74
2023/05/02 09:09:22;;;;;;;9.10;1.55;;;;;;;;;;5056365;27;93008;-68
2023/05/02 09:11:49;;;;;;;6.95;1.70;;;;;;;;;;5045749;28;92263;-68
2023/05/02 09:14:16;;;;;;;8.95;1.88;;;;;;;;;;5031924;27;92365;-68
2023/05/02 09:16:43;;;;;;;7.63;1.70;;;;;;;;;;5035882;28;93512;-69
2023/05/02 09:19:09;;;;;;;10.43;2.72;;;;;;;;;;5041514;27;91849;-70
2023/05/02 09:21:40;;;;;;;8.10;1.75;;;;;;;;;;5038683;27;92959;-70
2023/05/02 09:24:19;;;;;;;4.18;1.77;;;;;;;;;;5040345;28;92475;-67
2023/05/02 09:26:58;;;;;;;6.28;1.52;;;;;;;;;;5021169;28;94871;-67
2023/05/02 09:29:26;;;;;;;6.95;1.75;;;;;;;;;;5044669;27;95982;-68
2023/05/02 09:31:52;;;;;;;6.22;1.75;;;;;;;;;;5043519;27;94342;-68
2023/05/02 09:34:22;;;;;;;6.88;1.73;;;;;;;;;;5025592;28;92587;-68
2023/05/02 09:36:52;;;;;;;6.60;1.50;;;;;;;;;;5034079;27;93476;-67
2023/05/02 09:39:22;;;;;;;15.02;1.73;;;;;;;;;;5042608;27;92387;-67
2023/05/02 09:41:51;;;;;;;13.75;1.98;;;;;;;;;;5048419;27;92976;-67
2023/05/02 09:44:18;;;;;;;5.78;1.50;;;;;;;;;;5043238;27;92675;-68
2023/05/02 09:46:45;;;;;;;6.65;2.17;;;;;;;;;;5046476;27;92521;-68
2023/05/02 09:49:11;;;;;;;5.60;1.58;;;;;;;;;;5038413;27;94115;-68
2023/05/02 09:51:37;;;;;;;7.15;1.48;;;;;;;;;;5042511;27;96272;-67
2023/05/02 09:54:04;;;;;;;4.28;1.48;;;;;;;;;;5031348;27;92488;-67
2023/05/02 09:56:30;;;;;;;10.23;2.00;;;;;;;;;;5037553;27;93681;-67
2023/05/02 09:59:15;;;;;;;6.03;1.63;;;;;;;;;;5044430;27;93969;-67
2023/05/02 10:01:41;;;;;;;10.27;1.90;;;;;;;;;;5039703;27;93279;-67
2023/05/02 10:04:10;;;;;;;6.00;1.48;;;;;;;;;;5035251;27;94381;-67
2023/05/02 10:06:37;;;;;;;9.50;2.08;;;;;;;;;;5022047;27;93126;-67
2023/05/02 10:09:03;;;;;;;5.97;1.67;;;;;;;;;;5036816;28;94203;-67
2023/05/02 10:11:30;;;;;;;7.05;1.83;;;;;;;;;;5033642;27;94268;-67
2023/05/02 10:13:57;;;;;;;8.85;1.85;;;;;;;;;;5035627;28;92485;-67
2023/05/02 10:16:27;;;;;;;7.72;2.00;;;;;;;;;;5034166;28;95055;-67
2023/05/02 10:19:02;;;;;;;13.23;2.47;;;;;;;;;;5036485;28;93457;-68
2023/05/02 10:21:28;;;;;;;7.20;2.08;;;;;;;;;;5034756;28;93059;-68
2023/05/02 10:23:55;;;;;;;7.18;1.75;;;;;;;;;;5031606;28;94401;-69
2023/05/02 10:26:22;;;;;;;9.38;2.03;;;;;;;;;;5035511;28;92636;-68
2023/05/02 10:28:49;;;;;;;7.95;2.08;;;;;;;;;;5035065;28;94262;-69
2023/05/02 10:31:16;;;;;;;5.22;1.75;;;;;;;;;;5034978;28;93434;-68
2023/05/02 10:33:43;;;;;;;6.93;2.17;;;;;;;;;;5035829;28;93236;-68
2023/05/02 10:36:13;;;;;;;10.05;2.00;;;;;;;;;;5035849;28;93476;-68
2023/05/02 10:38:40;;;;;;;6.63;2.00;;;;;;;;;;5035062;28;93605;-68
2023/05/02 10:41:08;;;;;;;8.50;2.10;;;;;;;;;;5039189;27;95306;-68
2023/05/02 10:43:36;;;;;;;10.65;2.30;;;;;;;;;;5041073;27;94411;-68
2023/05/02 10:46:23;;;;;;;8.60;2.45;;;;;;;;;;5035356;28;92452;-67
2023/05/02 10:49:05;;;;;;;7.75;1.83;;;;;;;;;;5038486;27;93499;-68
2023/05/02 10:51:32;;;;;;;7.18;2.10;;;;;;;;;;5036146;27;93387;-68
2023/05/02 10:54:17;;;;;;;6.78;2.03;;;;;;;;;;5042012;27;92705;-68
2023/05/02 10:57:02;;;;;;;4.72;1.90;;;;;;;;;;5048441;27;92560;-68
2023/05/02 10:59:30;;;;;;;6.95;1.85;;;;;;;;;;5027906;27;93464;-68
2023/05/02 11:01:57;;;;;;;9.60;1.98;;;;;;;;;;5030935;28;95262;-67
2023/05/02 11:04:23;;;;;;;9.50;2.33;;;;;;;;;;5037279;27;93145;-67
2023/05/02 11:06:55;;;;;;;8.02;2.58;;;;;;;;;;5032906;27;94843;-67
2023/05/02 11:09:22;;;;;;;3.60;1.70;;;;;;;;;;5015958;27;95985;-69
2023/05/02 11:11:49;;;;;;;7.35;2.30;;;;;;;;;;5036532;27;94494;-67
2023/05/02 11:14:24;;;;;;;5.88;2.00;;;;;;;;;;5026700;27;92470;-69
2023/05/02 11:17:04;;;;;;;4.90;2.10;;;;;;;;;;5040132;27;93366;-67
2023/05/02 11:19:36;;;;;;;11.98;2.28;;;;;;;;;;5035231;28;94473;-69
2023/05/02 11:22:18;;;;;;;7.57;2.05;;;;;;;;;;5033817;27;92650;-69
2023/05/02 11:24:46;;;;;;;10.90;1.98;;;;;;;;;;5035494;27;93116;-69
2023/05/02 11:27:28;;;;;;;13.23;2.70;;;;;;;;;;5033647;27;93083;-69
2023/05/02 11:29:55;;;;;;;14.38;2.45;;;;;;;;;;5021738;27;93446;-69
2023/05/02 11:32:22;;;;;;;11.07;2.90;;;;;;;;;;5025804;27;95399;-68
2023/05/02 11:34:51;;;;;;;7.80;2.40;;;;;;;;;;5035214;27;93211;-69
2023/05/02 11:37:18;;;;;;;8.73;2.30;;;;;;;;;;5033142;27;94436;-69
2023/05/02 11:39:47;;;;;;;8.40;2.15;;;;;;;;;;5033814;28;93576;-69
2023/05/02 11:42:32;;;;;;;5.47;2.00;;;;;;;;;;5035706;27;92501;-69
2023/05/02 11:45:00;;;;;;;18.08;3.10;;;;;;;;;;5032937;27;93359;-70
2023/05/02 11:47:28;;;;;;;10.70;2.60;;;;;;;;;;5038777;27;94425;-69
2023/05/02 11:49:55;;;;;;;8.93;2.13;;;;;;;;;;5034076;28;93834;-67
2023/05/02 11:52:21;;;;;;;10.60;2.80;;;;;;;;;;5029943;27;93768;-67
2023/05/02 11:54:48;;;;;;;11.40;2.75;;;;;;;;;;5033503;27;92691;-68
2023/05/02 11:57:15;;;;;;;9.68;2.42;;;;;;;;;;5031785;27;94941;-68
2023/05/02 11:59:54;;;;;;;16.38;3.08;;;;;;;;;;5028029;27;94324;-68
2023/05/02 12:02:34;;;;;;;6.57;2.33;;;;;;;;;;5026171;27;92729;-68
2023/05/02 12:05:02;;;;;;;15.02;2.95;;;;;;;;;;5021245;27;94249;-68
2023/05/02 12:07:41;;;;;;;30.52;3.45;;;;;;;;;;5026742;27;94516;-68
2023/05/02 12:10:08;;;;;;;10.50;2.58;;;;;;;;;;5020853;27;94251;-70
2023/05/02 12:12:35;;;;;;;12.93;2.60;;;;;;;;;;5020076;27;94446;-68
2023/05/02 12:15:05;;;;;;;13.15;2.47;;;;;;;;;;5025263;27;93155;-69
2023/05/02 12:17:32;;;;;;;12.10;2.60;;;;;;;;;;5021649;27;92758;-67
2023/05/02 12:19:58;;;;;;;5.03;2.50;;;;;;;;;;5020767;27;94349;-67
2023/05/02 12:22:25;;;;;;;13.82;3.58;;;;;;;;;;5017982;27;96334;-69
2023/05/02 12:24:54;;;;;;;12.43;3.58;;;;;;;;;;5021290;27;96049;-67
2023/05/02 12:27:20;;;;;;;9.75;2.90;;;;;;;;;;5021421;27;94586;-69
2023/05/02 12:29:47;;;;;;;10.93;3.38;;;;;;;;;;5026764;27;92471;-67
2023/05/02 12:32:14;;;;;;;16.33;3.67;;;;;;;;;;5040495;27;94267;-68
2023/05/02 12:34:40;;;;;;;15.85;3.58;;;;;;;;;;5035495;27;94201;-67
2023/05/02 12:37:07;;;;;;;17.55;3.10;;;;;;;;;;5032256;27;94373;-68
2023/05/02 12:39:37;;;;;;;18.17;2.85;;;;;;;;;;5036135;27;93225;-67
2023/05/02 12:42:13;;;;;;;6.90;2.53;;;;;;;;;;5031345;27;92575;-68
2023/05/02 12:44:43;;;;;;;14.23;2.72;;;;;;;;;;5021704;27;94247;-69
2023/05/02 12:47:10;;;;;;;13.85;3.00;;;;;;;;;;5019580;27;95975;-73
2023/05/02 12:50:06;;;;;;;15.02;3.00;;;;;;;;;;5028843;27;94424;-74
2023/05/02 12:52:45;;;;;;;19.55;2.60;;;;;;;;;;5017955;27;93357;-68
2023/05/02 12:55:23;;;;;;;8.32;2.42;;;;;;;;;;5025841;27;93926;-67
2023/05/02 12:57:49;;;;;;;6.35;2.30;;;;;;;;;;5027485;27;94415;-67
2023/05/02 13:00:17;;;;;;;6.85;2.65;;;;;;;;;;5031195;27;93510;-67
2023/05/02 13:02:43;;;;;;;16.95;3.10;;;;;;;;;;5030942;27;94060;-67
2023/05/02 13:05:16;;;;;;;9.32;3.15;;;;;;;;;;5038103;27;92493;-67
2023/05/02 13:07:42;;;;;;;12.75;2.70;;;;;;;;;;5030652;27;93510;-67
2023/05/02 13:10:10;;;;;;;9.27;2.47;;;;;;;;;;5031154;27;92631;-67
2023/05/02 13:12:37;;;;;;;9.52;2.40;;;;;;;;;;5033483;27;94860;-67
2023/05/02 13:15:04;;;;;;;10.20;2.45;;;;;;;;;;5034126;27;93447;-68
2023/05/02 13:17:30;;;;;;;14.00;2.40;;;;;;;;;;5042275;27;92634;-67
2023/05/02 13:19:57;;;;;;;8.40;1.80;;;;;;;;;;5044289;27;94642;-67
2023/05/02 13:22:27;;;;;;;;;;;;;;;;;;5037036;28;92597;-67
2023/05/02 13:24:53;;;;;;;10.30;2.70;;;;;;;;;;5038541;27;123475;-67
2023/05/02 13:27:22;;;;;;;12.65;2.13;;;;;;;;;;5037208;27;93364;-67
2023/05/02 13:29:49;;;;;;;5.70;2.25;;;;;;;;;;5037034;27;91705;-67
2023/05/02 13:32:15;;;;;;;11.35;2.60;;;;;;;;;;5037287;27;93915;-67
2023/05/02 13:34:42;;;;;;;13.15;2.83;;;;;;;;;;5047387;27;93459;-67
2023/05/02 13:37:08;;;;;;;14.88;2.83;;;;;;;;;;5036371;27;95982;-66
2023/05/02 13:39:35;;;;;;;8.00;2.38;;;;;;;;;;5032711;27;94482;-67
2023/05/02 13:42:05;;;;;;;9.05;2.72;;;;;;;;;;5042928;27;92562;-66
2023/05/02 13:44:31;;;;;;;;;;;;;;;;;;5038134;27;94190;-67
2023/05/02 13:46:57;;;;;;;6.15;2.00;;;;;;;;;;5041228;27;123656;-66
2023/05/02 13:49:24;;;;;;;6.85;1.85;;;;;;;;;;5040925;27;93746;-66
2023/05/02 13:51:50;;;;;;;10.38;2.25;;;;;;;;;;5040567;27;93691;-66
2023/05/02 13:54:16;;;;;;;13.35;3.15;;;;;;;;;;5034627;27;91802;-66
2023/05/02 13:56:43;;;;;;;8.35;1.88;;;;;;;;;;5036609;27;94250;-67
2023/05/02 13:59:09;;;;;;;8.52;2.10;;;;;;;;;;5036477;27;94345;-67
2023/05/02 14:01:39;;;;;;;13.50;2.10;;;;;;;;;;5037124;27;96754;-67
2023/05/02 14:04:07;;;;;;;10.10;2.28;;;;;;;;;;5040130;27;95592;-67
2023/05/02 14:06:34;;;;;;;8.85;2.03;;;;;;;;;;5032622;27;92553;-67
2023/05/02 14:09:00;;;;;;;8.05;2.38;;;;;;;;;;5045468;27;92888;-67
2023/05/02 14:11:27;;;;;;;7.53;2.00;;;;;;;;;;5032708;27;94423;-67
2023/05/02 14:13:56;;;;;;;12.27;2.60;;;;;;;;;;5026540;27;93447;-67
2023/05/02 14:16:22;;;;;;;7.75;2.13;;;;;;;;;;5035481;27;93480;-67
2023/05/02 14:18:49;;;;;;;10.38;2.30;;;;;;;;;;5033957;27;94515;-67
2023/05/02 14:21:15;;;;;;;8.48;2.22;;;;;;;;;;5042563;27;94202;-67
2023/05/02 14:23:42;;;;;;;7.68;2.13;;;;;;;;;;5038255;27;94602;-67
2023/05/02 14:26:08;;;;;;;10.75;2.00;;;;;;;;;;5027867;27;97620;-67
2023/05/02 14:28:35;;;;;;;9.25;2.10;;;;;;;;;;5039614;27;93921;-67
2023/05/02 14:31:04;;;;;;;9.27;1.88;;;;;;;;;;5031709;27;94483;-67
2023/05/02 14:33:30;;;;;;;6.20;1.73;;;;;;;;;;5036869;27;94678;-67
2023/05/02 14:35:57;;;;;;;8.50;2.17;;;;;;;;;;5031412;27;93403;-67
2023/05/02 14:38:23;;;;;;;6.53;2.30;;;;;;;;;;5034424;27;94182;-67